Time;durP1;ratioP1;P1;durP2;ratioP2;P2;SDS_P1;SDS_P2;PMS_P1;PMS_P2;Temp;Humidity;BMP_temperature;BMP_pressure;BME280_temperature;BME280_humidity;BME280_pressure;Samples;Min_cycle;Max_cycle;Signal;HPM_P1;HPM_P2
2023/01/07 00:02:02;;;;;;;;;;;10.20;99.90;;;;;;4968074;28;20020;-70
2023/01/07 00:04:28;;;;;;;;;;;10.20;99.90;;;;;;4967881;28;19926;-70
2023/01/07 00:06:58;;;;;;;;;;;10.20;99.90;;;;;;4968108;28;19926;-70
2023/01/07 00:09:24;;;;;;;;;;;10.20;99.90;;;;;;4965902;28;20032;-70
2023/01/07 00:11:51;;;;;;;;;;;10.20;99.90;;;;;;4969473;28;19926;-70
2023/01/07 00:14:18;;;;;;;;;;;10.10;99.90;;;;;;4968374;28;19992;-70
2023/01/07 00:16:44;;;;;;;;;;;10.10;99.90;;;;;;4969854;28;19933;-70
2023/01/07 00:19:13;;;;;;;;;;;10.10;99.90;;;;;;4966404;28;19976;-71
2023/01/07 00:21:40;;;;;;;;;;;10.10;99.90;;;;;;4968841;28;19926;-71
2023/01/07 00:24:09;;;;;;;;;;;10.10;99.90;;;;;;4968448;28;20026;-70
2023/01/07 00:26:37;;;;;;;;;;;10.00;99.90;;;;;;4969358;28;20382;-71
2023/01/07 00:29:04;;;;;;;;;;;10.00;99.90;;;;;;4968040;28;19926;-70
2023/01/07 00:31:31;;;;;;;;;;;9.90;99.90;;;;;;4967611;28;19926;-71
2023/01/07 00:34:07;;;;;;;;;;;9.90;99.90;;;;;;4969665;28;20333;-70
2023/01/07 00:36:36;;;;;;;;;;;9.90;99.90;;;;;;4965886;28;19926;-69
2023/01/07 00:39:04;;;;;;;;;;;9.90;99.90;;;;;;4969340;28;19928;-70
2023/01/07 00:41:32;;;;;;;;;;;9.90;99.90;;;;;;4969391;28;19926;-70
2023/01/07 00:43:58;;;;;;;;;;;9.90;99.90;;;;;;4968113;28;19934;-69
2023/01/07 00:46:25;;;;;;;;;;;9.90;99.90;;;;;;4969026;28;20713;-70
2023/01/07 00:48:52;;;;;;;;;;;9.80;99.90;;;;;;4968005;28;20276;-70
2023/01/07 00:51:19;;;;;;;;;;;9.80;99.90;;;;;;4967955;28;20373;-69
2023/01/07 00:53:46;;;;;;;;;;;9.90;99.90;;;;;;4968291;28;20465;-69
2023/01/07 00:56:13;;;;;;;;;;;9.80;99.90;;;;;;4969233;28;19965;-70
2023/01/07 00:58:41;;;;;;;;;;;9.80;99.90;;;;;;4968399;28;20305;-70
2023/01/07 01:01:09;;;;;;;;;;;9.80;99.90;;;;;;4969295;28;20017;-70
2023/01/07 01:03:36;;;;;;;;;;;9.80;99.90;;;;;;4974328;28;19926;-70
2023/01/07 01:06:03;;;;;;;;;;;9.80;99.90;;;;;;4968412;28;20378;-70
2023/01/07 01:08:30;;;;;;;;;;;9.80;99.90;;;;;;4967193;28;19933;-69
2023/01/07 01:11:02;;;;;;;;;;;9.70;99.90;;;;;;4969597;28;20457;-70
2023/01/07 01:13:29;;;;;;;;;;;9.70;99.90;;;;;;4968968;28;19948;-70
2023/01/07 01:15:57;;;;;;;;;;;9.70;99.90;;;;;;4969376;28;20319;-70
2023/01/07 01:18:24;;;;;;;;;;;9.70;99.90;;;;;;4967158;28;19933;-69
2023/01/07 01:20:50;;;;;;;;;;;9.80;99.90;;;;;;4967767;28;19926;-70
2023/01/07 01:23:17;;;;;;;;;;;9.80;99.90;;;;;;4968310;28;19930;-70
2023/01/07 01:25:44;;;;;;;;;;;9.80;99.90;;;;;;4965211;28;19930;-69
2023/01/07 01:28:10;;;;;;;;;;;9.80;99.90;;;;;;4967108;28;20103;-69
2023/01/07 01:30:37;;;;;;;;;;;9.80;99.90;;;;;;4969510;28;19926;-69
2023/01/07 01:33:05;;;;;;;;;;;9.80;99.90;;;;;;4969527;28;19944;-70
2023/01/07 01:35:32;;;;;;;;;;;9.80;99.90;;;;;;4968870;28;19927;-71
2023/01/07 01:37:59;;;;;;;;;;;9.80;99.90;;;;;;4969559;28;20402;-69
2023/01/07 01:40:28;;;;;;;;;;;9.80;99.90;;;;;;4967427;28;20005;-69
2023/01/07 01:42:55;;;;;;;;;;;9.80;99.90;;;;;;4978358;28;19965;-69
2023/01/07 01:45:21;;;;;;;;;;;9.90;99.90;;;;;;4982751;28;20039;-69
2023/01/07 01:47:50;;;;;;;;;;;9.90;99.90;;;;;;4972046;28;19926;-69
2023/01/07 01:50:19;;;;;;;;;;;9.90;99.90;;;;;;4972704;28;19926;-70
2023/01/07 01:52:48;;;;;;;;;;;9.90;99.90;;;;;;4972842;28;19926;-70
2023/01/07 01:55:16;;;;;;;;;;;9.90;99.90;;;;;;4972806;28;19926;-70
2023/01/07 01:57:42;;;;;;;;;;;10.00;99.90;;;;;;4974854;28;19926;-70
2023/01/07 02:00:10;;;;;;;;;;;10.00;99.90;;;;;;4973040;28;19930;-70
2023/01/07 02:02:41;;;;;;;;;;;10.00;99.90;;;;;;4972801;28;20271;-70
2023/01/07 02:05:07;;;;;;;;;;;10.00;99.90;;;;;;4965922;28;19933;-70
2023/01/07 02:07:35;;;;;;;;;;;10.00;99.90;;;;;;4972635;28;20296;-70
2023/01/07 02:10:13;;;;;;;;;;;10.10;99.90;;;;;;4971826;28;19926;-70
2023/01/07 02:12:54;;;;;;;;;;;10.00;99.90;;;;;;4972704;28;19926;-70
2023/01/07 02:15:26;;;;;;;;;;;10.10;99.90;;;;;;4966384;28;19973;-70
2023/01/07 02:17:59;;;;;;;;;;;10.10;99.90;;;;;;4968269;28;19925;-70
2023/01/07 02:20:30;;;;;;;;;;;10.10;99.90;;;;;;4972155;28;19926;-70
2023/01/07 02:23:15;;;;;;;;;;;10.00;99.90;;;;;;4972432;28;19926;-70
2023/01/07 02:25:57;;;;;;;;;;;10.10;99.90;;;;;;4969330;28;19927;-70
2023/01/07 02:28:35;;;;;;;;;;;10.10;99.90;;;;;;4970628;28;19927;-70
2023/01/07 02:31:23;;;;;;;;;;;10.10;99.90;;;;;;4970310;28;19932;-70
2023/01/07 02:33:57;;;;;;;;;;;10.10;99.90;;;;;;4971897;28;19926;-70
2023/01/07 02:36:30;;;;;;;;;;;10.20;99.90;;;;;;4972406;28;20029;-70
2023/01/07 02:39:12;;;;;;;;;;;10.20;99.90;;;;;;4967913;28;19926;-70
2023/01/07 02:41:44;;;;;;;;;;;10.20;99.90;;;;;;4962554;28;19926;-70
2023/01/07 02:44:14;;;;;;;;;;;10.20;99.90;;;;;;4970431;28;19966;-69
2023/01/07 02:46:42;;;;;;;;;;;10.20;99.90;;;;;;4969932;28;20274;-69
2023/01/07 02:49:14;;;;;;;;;;;10.30;99.90;;;;;;4971358;28;19937;-69
2023/01/07 02:51:42;;;;;;;;;;;10.30;99.90;;;;;;4970785;28;20014;-70
2023/01/07 02:54:12;;;;;;;;;;;10.30;99.90;;;;;;4970456;28;19969;-69
2023/01/07 02:56:45;;;;;;;;;;;10.30;99.90;;;;;;4971789;28;19926;-70
2023/01/07 02:59:20;;;;;;;;;;;10.20;99.90;;;;;;4971335;28;19933;-70
2023/01/07 03:02:00;;;;;;;;;;;10.20;99.90;;;;;;4971916;28;19930;-70
2023/01/07 03:04:51;;;;;;;;;;;10.30;99.90;;;;;;4971114;28;19926;-70
2023/01/07 03:07:24;;;;;;;;;;;10.30;99.90;;;;;;4975308;28;19926;-70
2023/01/07 03:09:56;;;;;;;;;;;10.30;99.90;;;;;;4964528;28;19953;-70
2023/01/07 03:12:26;;;;;;;;;;;10.30;99.90;;;;;;4971791;28;19927;-70
2023/01/07 03:14:57;;;;;;;;;;;10.30;99.90;;;;;;4970191;28;19930;-70
2023/01/07 03:17:26;;;;;;;;;;;10.30;99.90;;;;;;4970670;28;19933;-70
2023/01/07 03:19:54;;;;;;;;;;;10.30;99.90;;;;;;4969192;28;19949;-70
2023/01/07 03:22:25;;;;;;;;;;;10.30;99.90;;;;;;4977922;28;19948;-70
2023/01/07 03:24:52;;;;;;;;;;;10.30;99.90;;;;;;4968506;28;20254;-70
2023/01/07 03:27:21;;;;;;;;;;;10.30;99.90;;;;;;4973059;28;20037;-70
2023/01/07 03:29:48;;;;;;;;;;;10.20;99.90;;;;;;4968301;28;19989;-70
2023/01/07 03:32:15;;;;;;;;;;;10.20;99.90;;;;;;4970129;28;19933;-69
2023/01/07 03:34:43;;;;;;;;;;;10.20;99.90;;;;;;4969847;28;19926;-69
2023/01/07 03:37:11;;;;;;;;;;;10.20;99.90;;;;;;4971964;28;20024;-69
2023/01/07 03:39:40;;;;;;;;;;;10.20;99.90;;;;;;4968675;28;19932;-70
2023/01/07 03:44:51;;;;;;;;;;;10.20;99.90;;;;;;4969828;28;20056;-69
2023/01/07 03:47:18;;;;;;;;;;;10.20;99.90;;;;;;4970514;28;19932;-70
2023/01/07 03:49:45;;;;;;;;;;;10.20;99.90;;;;;;4967396;28;20009;-70
2023/01/07 03:52:12;;;;;;;;;;;10.30;99.90;;;;;;4970943;28;19926;-69
2023/01/07 03:54:40;;;;;;;;;;;10.20;99.90;;;;;;4968995;28;19926;-70
2023/01/07 03:57:07;;;;;;;;;;;10.30;99.90;;;;;;4970782;28;19926;-70
2023/01/07 03:59:33;;;;;;;;;;;10.30;99.90;;;;;;4968267;28;19954;-70
2023/01/07 04:02:00;;;;;;;;;;;10.30;99.90;;;;;;4969238;28;19930;-70
2023/01/07 04:04:27;;;;;;;;;;;10.30;99.90;;;;;;4974141;28;19940;-70
2023/01/07 04:06:53;;;;;;;;;;;10.30;99.90;;;;;;4969562;28;19926;-70
2023/01/07 04:09:20;;;;;;;;;;;10.40;99.90;;;;;;4967235;28;20301;-70
2023/01/07 04:11:48;;;;;;;;;;;10.40;99.90;;;;;;4970064;28;20379;-70
2023/01/07 04:14:15;;;;;;;;;;;10.40;99.90;;;;;;4967088;28;20009;-69
2023/01/07 04:16:42;;;;;;;;;;;10.30;99.90;;;;;;4979348;28;19925;-70
2023/01/07 04:19:09;;;;;;;;;;;10.30;99.90;;;;;;4976510;28;20003;-70
2023/01/07 04:21:35;;;;;;;;;;;10.30;99.90;;;;;;4968635;28;19926;-70
2023/01/07 04:24:02;;;;;;;;;;;10.30;99.90;;;;;;4972999;28;19973;-70
2023/01/07 04:26:30;;;;;;;;;;;10.30;99.90;;;;;;4970866;28;19938;-69
2023/01/07 04:28:59;;;;;;;;;;;10.30;99.90;;;;;;4966903;28;19930;-71
2023/01/07 04:31:26;;;;;;;;;;;10.30;99.90;;;;;;4971798;28;19930;-71
2023/01/07 04:33:52;;;;;;;;;;;10.30;99.90;;;;;;4971799;28;19969;-70
2023/01/07 04:36:19;;;;;;;;;;;10.30;99.90;;;;;;4971240;28;19926;-71
2023/01/07 04:38:46;;;;;;;;;;;10.30;99.90;;;;;;4980032;28;19926;-71
2023/01/07 04:41:12;;;;;;;;;;;10.30;99.90;;;;;;4967501;28;20013;-71
2023/01/07 04:43:39;;;;;;;;;;;10.20;99.90;;;;;;4967141;28;19932;-71
2023/01/07 04:46:07;;;;;;;;;;;10.20;99.90;;;;;;4959849;28;19926;-71
2023/01/07 04:48:34;;;;;;;;;;;10.20;99.90;;;;;;4969573;28;20009;-70
2023/01/07 04:51:01;;;;;;;;;;;10.20;99.90;;;;;;4968729;28;20017;-70
2023/01/07 04:53:27;;;;;;;;;;;10.20;99.90;;;;;;4967580;28;20034;-71
2023/01/07 04:55:54;;;;;;;;;;;10.20;99.90;;;;;;4969705;28;20020;-70
2023/01/07 04:58:21;;;;;;;;;;;10.20;99.90;;;;;;4967722;28;19931;-70
2023/01/07 05:00:48;;;;;;;;;;;10.20;99.90;;;;;;4968907;28;20033;-71
2023/01/07 05:03:18;;;;;;;;;;;10.30;99.90;;;;;;4965693;28;19985;-70
2023/01/07 05:05:45;;;;;;;;;;;10.20;99.90;;;;;;4968022;28;19926;-70
2023/01/07 05:08:12;;;;;;;;;;;10.20;99.90;;;;;;4968805;28;20021;-70
2023/01/07 05:10:39;;;;;;;;;;;10.30;99.90;;;;;;4968413;28;19926;-70
2023/01/07 05:13:05;;;;;;;;;;;10.20;99.90;;;;;;4968485;28;20025;-71
2023/01/07 05:15:32;;;;;;;;;;;10.20;99.90;;;;;;4967298;28;19926;-70
2023/01/07 05:17:59;;;;;;;;;;;10.30;99.90;;;;;;4967646;28;19926;-70
2023/01/07 05:20:27;;;;;;;;;;;10.20;99.90;;;;;;4967619;28;19969;-70
2023/01/07 05:22:54;;;;;;;;;;;10.20;99.90;;;;;;4967290;28;19934;-71
2023/01/07 05:25:22;;;;;;;;;;;10.20;99.90;;;;;;4968637;28;20326;-71
2023/01/07 05:27:49;;;;;;;;;;;10.20;99.90;;;;;;4968830;28;20228;-71
2023/01/07 05:30:16;;;;;;;;;;;10.20;99.90;;;;;;4968068;28;19977;-71
2023/01/07 05:32:43;;;;;;;;;;;10.20;99.90;;;;;;4968440;28;19930;-70
2023/01/07 05:35:09;;;;;;;;;;;10.20;99.90;;;;;;4966891;28;19933;-70
2023/01/07 05:37:37;;;;;;;;;;;10.20;99.90;;;;;;4968563;28;19926;-69
2023/01/07 05:40:05;;;;;;;;;;;10.20;99.90;;;;;;4968191;28;20020;-70
2023/01/07 05:42:32;;;;;;;;;;;10.20;99.90;;;;;;4966330;28;20018;-71
2023/01/07 05:44:58;;;;;;;;;;;10.20;99.90;;;;;;4967404;28;19926;-69
2023/01/07 05:47:25;;;;;;;;;;;10.20;99.90;;;;;;4971250;28;19926;-70
2023/01/07 05:49:52;;;;;;;;;;;10.20;99.90;;;;;;4967257;28;20288;-71
2023/01/07 05:52:18;;;;;;;;;;;10.10;99.90;;;;;;4968250;28;19973;-70
2023/01/07 05:54:47;;;;;;;;;;;10.10;99.90;;;;;;4965713;28;19934;-70
2023/01/07 05:57:13;;;;;;;;;;;10.10;99.90;;;;;;4970188;28;20013;-70
2023/01/07 05:59:40;;;;;;;;;;;10.10;99.90;;;;;;4968698;28;19989;-69
2023/01/07 06:02:07;;;;;;;;;;;10.10;99.90;;;;;;4966423;28;20296;-70
2023/01/07 06:04:34;;;;;;;;;;;10.10;99.90;;;;;;4967504;28;20381;-70
2023/01/07 06:07:00;;;;;;;;;;;10.10;99.90;;;;;;4970309;28;19929;-71
2023/01/07 06:09:28;;;;;;;;;;;10.10;99.90;;;;;;4969010;28;19926;-71
2023/01/07 06:11:56;;;;;;;;;;;10.20;99.90;;;;;;4969454;28;19926;-71
2023/01/07 06:14:23;;;;;;;;;;;10.20;99.90;;;;;;4968595;28;19933;-72
2023/01/07 06:16:50;;;;;;;;;;;10.10;99.90;;;;;;4970095;28;19978;-73
2023/01/07 06:19:17;;;;;;;;;;;10.20;99.90;;;;;;4969722;28;20009;-73
2023/01/07 06:21:43;;;;;;;;;;;10.20;99.90;;;;;;4966711;28;19962;-72
2023/01/07 06:24:10;;;;;;;;;;;10.20;99.90;;;;;;4968598;28;19926;-71
2023/01/07 06:26:37;;;;;;;;;;;10.20;99.90;;;;;;4969929;28;20032;-74
2023/01/07 06:29:05;;;;;;;;;;;10.20;99.90;;;;;;4970981;28;20616;-73
2023/01/07 06:31:32;;;;;;;;;;;10.30;99.90;;;;;;4970303;28;20012;-73
2023/01/07 06:33:59;;;;;;;;;;;10.30;99.90;;;;;;4970685;28;20371;-75
2023/01/07 06:36:26;;;;;;;;;;;10.30;99.90;;;;;;4973597;28;19937;-75
2023/01/07 06:38:52;;;;;;;;;;;10.30;99.90;;;;;;4969644;28;20013;-74
2023/01/07 06:41:19;;;;;;;;;;;10.30;99.90;;;;;;4971873;28;20029;-73
2023/01/07 06:43:46;;;;;;;;;;;10.40;99.90;;;;;;4970197;28;19933;-72
2023/01/07 06:46:14;;;;;;;;;;;10.30;99.90;;;;;;4968733;28;19926;-72
2023/01/07 06:48:40;;;;;;;;;;;10.30;99.90;;;;;;4968994;28;19944;-70
2023/01/07 06:51:07;;;;;;;;;;;10.40;99.90;;;;;;4971959;28;19964;-72
2023/01/07 06:53:34;;;;;;;;;;;10.40;99.90;;;;;;4969218;28;19930;-72
2023/01/07 06:56:01;;;;;;;;;;;10.40;99.90;;;;;;4972425;28;20016;-72
2023/01/07 06:58:28;;;;;;;;;;;10.40;99.90;;;;;;4969419;28;19926;-71
2023/01/07 07:00:54;;;;;;;;;;;10.40;99.90;;;;;;4972809;28;19966;-72
2023/01/07 07:03:22;;;;;;;;;;;10.40;99.90;;;;;;4968476;28;19927;-71
2023/01/07 07:05:49;;;;;;;;;;;10.30;99.90;;;;;;4971322;28;20305;-72
2023/01/07 07:08:16;;;;;;;;;;;10.40;99.90;;;;;;4969430;28;19966;-72
2023/01/07 07:10:42;;;;;;;;;;;10.40;99.90;;;;;;4971400;28;19996;-72
2023/01/07 07:13:10;;;;;;;;;;;10.40;99.90;;;;;;4968029;28;20021;-72
2023/01/07 07:15:37;;;;;;;;;;;10.40;99.90;;;;;;4972626;28;19926;-71
2023/01/07 07:18:04;;;;;;;;;;;10.40;99.90;;;;;;4967262;28;19940;-71
2023/01/07 07:20:32;;;;;;;;;;;10.40;99.90;;;;;;4972803;28;19932;-72
2023/01/07 07:22:58;;;;;;;;;;;10.40;99.90;;;;;;4969455;28;19926;-72
2023/01/07 07:25:25;;;;;;;;;;;10.40;99.90;;;;;;4972253;28;19926;-75
2023/01/07 07:27:52;;;;;;;;;;;10.40;99.90;;;;;;4968712;28;19977;-71
2023/01/07 07:30:19;;;;;;;;;;;10.40;99.90;;;;;;4970782;28;20045;-73
2023/01/07 07:32:46;;;;;;;;;;;10.40;99.90;;;;;;4969698;28;19933;-71
2023/01/07 07:35:13;;;;;;;;;;;10.40;99.90;;;;;;4969135;28;20394;-73
2023/01/07 07:37:41;;;;;;;;;;;10.40;99.90;;;;;;4982516;28;20014;-73
2023/01/07 07:40:09;;;;;;;;;;;10.50;99.90;;;;;;4970785;28;19930;-72
2023/01/07 07:42:35;;;;;;;;;;;10.50;99.90;;;;;;4966115;28;20460;-73
2023/01/07 07:45:02;;;;;;;;;;;10.50;99.90;;;;;;4969766;28;20460;-74
2023/01/07 07:47:29;;;;;;;;;;;10.50;99.90;;;;;;4971959;28;19930;-72
2023/01/07 07:49:56;;;;;;;;;;;10.50;99.90;;;;;;4966637;28;19941;-71
2023/01/07 07:52:23;;;;;;;;;;;10.50;99.90;;;;;;4967787;28;20020;-72
2023/01/07 07:54:52;;;;;;;;;;;10.50;99.90;;;;;;4966510;28;20005;-72
2023/01/07 07:57:19;;;;;;;;;;;10.60;99.90;;;;;;4969313;28;19953;-72
2023/01/07 07:59:46;;;;;;;;;;;10.60;99.90;;;;;;4968840;28;20043;-72
2023/01/07 08:02:13;;;;;;;;;;;10.60;99.90;;;;;;4967775;28;20021;-73
2023/01/07 08:04:39;;;;;;;;;;;10.60;99.90;;;;;;4968375;28;19930;-70
2023/01/07 08:07:06;;;;;;;;;;;10.60;99.90;;;;;;4967951;28;19930;-71
2023/01/07 08:09:33;;;;;;;;;;;10.60;99.90;;;;;;4964372;28;19934;-72
2023/01/07 08:12:01;;;;;;;;;;;10.50;99.90;;;;;;4965930;28;19937;-72
2023/01/07 08:14:28;;;;;;;;;;;10.60;99.90;;;;;;4967661;28;20017;-72
2023/01/07 08:16:55;;;;;;;;;;;10.60;99.90;;;;;;4970226;28;19926;-72
2023/01/07 08:19:22;;;;;;;;;;;10.60;99.90;;;;;;4963835;28;19926;-72
2023/01/07 08:21:50;;;;;;;;;;;10.60;99.90;;;;;;4969121;28;20312;-72
2023/01/07 08:24:17;;;;;;;;;;;10.60;99.90;;;;;;4966398;28;19988;-71
2023/01/07 08:26:44;;;;;;;;;;;10.60;99.90;;;;;;4969581;28;19932;-72
2023/01/07 08:29:12;;;;;;;;;;;10.60;99.90;;;;;;4966771;28;19933;-72
2023/01/07 08:31:38;;;;;;;;;;;10.60;99.90;;;;;;4965646;28;19936;-73
2023/01/07 08:34:05;;;;;;;;;;;10.60;99.90;;;;;;4963942;28;20362;-72
2023/01/07 08:36:32;;;;;;;;;;;10.60;99.90;;;;;;4966688;28;19926;-72
2023/01/07 08:38:59;;;;;;;;;;;10.60;99.90;;;;;;4969383;28;19927;-72
2023/01/07 08:41:26;;;;;;;;;;;10.60;99.90;;;;;;4970261;28;19926;-73
2023/01/07 08:43:53;;;;;;;;;;;10.70;99.90;;;;;;4966562;28;20419;-72
2023/01/07 08:46:21;;;;;;;;;;;10.70;99.90;;;;;;4966277;28;19933;-72
2023/01/07 08:48:48;;;;;;;;;;;10.70;99.90;;;;;;4968161;28;19930;-73
2023/01/07 08:51:15;;;;;;;;;;;10.70;99.90;;;;;;4968297;28;19930;-72
2023/01/07 08:53:41;;;;;;;;;;;10.70;99.90;;;;;;4969489;28;19965;-72
2023/01/07 08:56:08;;;;;;;;;;;10.70;99.90;;;;;;4967989;28;19926;-71
2023/01/07 08:58:35;;;;;;;;;;;11.00;99.90;;;;;;4967667;28;20455;-72
2023/01/07 09:01:02;;;;;;;;;;;11.50;99.90;;;;;;4968654;28;20016;-72
2023/01/07 09:03:30;;;;;;;;;;;12.00;99.90;;;;;;4961642;28;20225;-70
2023/01/07 09:05:57;;;;;;;;;;;12.10;99.90;;;;;;4966999;28;19934;-72
2023/01/07 09:08:24;;;;;;;;;;;12.30;99.90;;;;;;4968434;28;19952;-72
2023/01/07 09:10:50;;;;;;;;;;;12.30;99.90;;;;;;4969723;28;19926;-73
2023/01/07 09:13:17;;;;;;;;;;;12.20;99.90;;;;;;4969835;28;20358;-74
2023/01/07 09:15:44;;;;;;;;;;;12.30;99.90;;;;;;4967427;28;19926;-71
2023/01/07 09:18:11;;;;;;;;;;;12.00;99.90;;;;;;4968654;28;19934;-72
2023/01/07 09:20:39;;;;;;;;;;;12.10;99.90;;;;;;4969504;28;20345;-70
2023/01/07 09:23:06;;;;;;;;;;;11.90;99.90;;;;;;4958161;28;20033;-71
2023/01/07 09:25:46;;;;;;;;;;;11.90;99.90;;;;;;4961012;28;20025;-72
2023/01/07 09:28:13;;;;;;;;;;;11.80;99.90;;;;;;4956269;28;20428;-71
2023/01/07 09:30:41;;;;;;;;;;;11.70;99.90;;;;;;4961695;28;20392;-72
2023/01/07 09:33:07;;;;;;;;;;;11.40;99.90;;;;;;4957955;28;19934;-72
2023/01/07 09:35:34;;;;;;;;;;;11.20;99.90;;;;;;4963696;28;19926;-71
2023/01/07 09:38:03;;;;;;;;;;;11.00;99.90;;;;;;4961940;28;19934;-72
2023/01/07 09:40:36;;;;;;;;;;;10.90;99.90;;;;;;4971987;28;19957;-74
2023/01/07 09:43:06;;;;;;;;;;;10.90;99.90;;;;;;4955574;28;20325;-74
2023/01/07 09:45:34;;;;;;;;;;;10.90;99.90;;;;;;4962343;28;19958;-73
2023/01/07 09:48:02;;;;;;;;;;;11.00;99.90;;;;;;4961669;28;20038;-74
2023/01/07 09:50:37;;;;;;;;;;;11.10;99.90;;;;;;4963538;28;20012;-73
2023/01/07 09:53:07;;;;;;;;;;;11.00;99.90;;;;;;4968924;28;19973;-72
2023/01/07 09:55:35;;;;;;;;;;;11.00;99.90;;;;;;4967444;28;20024;-75
2023/01/07 09:58:01;;;;;;;;;;;11.10;99.90;;;;;;4959990;28;20136;-72
2023/01/07 10:00:33;;;;;;;;;;;11.10;99.90;;;;;;4968284;28;19973;-72
2023/01/07 10:03:10;;;;;;;;;;;11.10;99.90;;;;;;4963980;28;19930;-72
2023/01/07 10:05:42;;;;;;;;;;;11.10;99.90;;;;;;4965400;28;19941;-72
2023/01/07 10:08:14;;;;;;;;;;;11.10;99.90;;;;;;4960527;28;20017;-73
2023/01/07 10:10:44;;;;;;;;;;;11.20;99.90;;;;;;4964396;28;19948;-74
2023/01/07 10:13:16;;;;;;;;;;;11.20;99.90;;;;;;4965412;28;19930;-73
2023/01/07 10:15:47;;;;;;;;;;;11.30;99.90;;;;;;4970156;28;19925;-74
2023/01/07 10:18:25;;;;;;;;;;;11.30;99.90;;;;;;4974280;28;20407;-71
2023/01/07 10:20:54;;;;;;;;;;;11.30;99.90;;;;;;4982383;28;19930;-73
2023/01/07 10:23:26;;;;;;;;;;;11.30;99.90;;;;;;4969562;28;19930;-72
2023/01/07 10:25:54;;;;;;;;;;;11.30;99.90;;;;;;4979819;28;19953;-72
2023/01/07 10:28:22;;;;;;;;;;;11.30;99.90;;;;;;4968754;28;19953;-72
2023/01/07 10:30:51;;;;;;;;;;;11.30;99.90;;;;;;4968188;28;20136;-72
2023/01/07 10:36:04;;;;;;;;;;;11.20;99.90;;;;;;5122599;27;20310;-73
2023/01/07 10:38:34;;;;;;;;;;;11.20;99.90;;;;;;5106159;27;20039;-72
2023/01/07 10:41:03;;;;;;;;;;;11.20;99.90;;;;;;5115992;27;20006;-72
2023/01/07 10:43:43;;;;;;;;;;;11.20;99.90;;;;;;5108142;28;20350;-71
2023/01/07 10:46:21;;;;;;;;;;;11.30;99.90;;;;;;5100451;28;20381;-72
2023/01/07 10:48:56;;;;;;;;;;;11.30;99.90;;;;;;5094050;28;19947;-72
2023/01/07 10:51:38;;;;;;;;;;;11.30;99.90;;;;;;5111012;28;19928;-71
2023/01/07 10:54:10;;;;;;;;;;;11.30;99.90;;;;;;5109349;27;19998;-71
2023/01/07 10:56:40;;;;;;;;;;;11.40;99.90;;;;;;5104784;28;20018;-71
2023/01/07 10:59:08;;;;;;;;;;;11.40;99.90;;;;;;5098152;28;19923;-71
2023/01/07 11:01:37;;;;;;;;;;;11.50;99.90;;;;;;5110752;27;20006;-71
2023/01/07 11:04:04;;;;;;;;;;;11.60;99.90;;;;;;5107068;27;20372;-70
2023/01/07 11:06:38;;;;;;;;;;;11.70;99.90;;;;;;5107075;28;20014;-71
2023/01/07 11:09:06;;;;;;;;;;;11.70;99.90;;;;;;5107362;28;20006;-71
2023/01/07 11:11:33;;;;;;;;;;;11.70;99.90;;;;;;5113542;28;20014;-71
2023/01/07 11:14:02;;;;;;;;;;;11.80;99.90;;;;;;5109703;28;20408;-72
2023/01/07 11:16:30;;;;;;;;;;;11.80;99.90;;;;;;5106871;27;20110;-72
2023/01/07 11:18:59;;;;;;;;;;;11.80;99.90;;;;;;5114975;28;20378;-72
2023/01/07 11:21:37;;;;;;;;;;;11.90;99.90;;;;;;5109813;27;20390;-72
2023/01/07 11:24:24;;;;;;;;;;;11.90;99.90;;;;;;5109221;28;19923;-72
2023/01/07 11:26:51;;;;;;;;;;;12.00;99.90;;;;;;5105787;28;19924;-73
2023/01/07 11:29:22;;;;;;;;;;;12.00;99.90;;;;;;5107744;28;20026;-72
2023/01/07 11:31:51;;;;;;;;;;;12.00;99.90;;;;;;5102731;28;19963;-72
2023/01/07 11:34:19;;;;;;;;;;;12.00;99.90;;;;;;5110232;28;20458;-71
2023/01/07 11:36:49;;;;;;;;;;;12.10;99.90;;;;;;5127867;28;19923;-72
2023/01/07 11:39:19;;;;;;;;;;;12.20;99.90;;;;;;5118935;28;19924;-72
2023/01/07 11:41:53;;;;;;;;;;;12.10;99.90;;;;;;5124740;27;19927;-72
2023/01/07 11:44:19;;;;;;;;;;;12.10;99.90;;;;;;5125515;28;19998;-73
2023/01/07 11:46:46;;;;;;;;;;;12.10;99.90;;;;;;5113763;28;19960;-72
2023/01/07 11:49:21;;;;;;;;;;;12.00;99.90;;;;;;5118216;27;19941;-72
2023/01/07 11:51:49;;;;;;;;;;;11.90;99.90;;;;;;5120821;27;20014;-73
2023/01/07 11:54:19;;;;;;;;;;;11.90;99.90;;;;;;5116149;27;20018;-72
2023/01/07 11:56:46;;;;;;;;;;;12.00;99.90;;;;;;5111370;27;19927;-71
2023/01/07 11:59:15;;;;;;;;;;;12.00;99.90;;;;;;5100357;28;19959;-73
2023/01/07 12:01:43;;;;;;;;;;;11.90;99.90;;;;;;5115247;27;19924;-72
2023/01/07 12:04:18;;;;;;;;;;;11.80;99.90;;;;;;5108682;27;19928;-72
2023/01/07 12:06:46;;;;;;;;;;;11.70;99.90;;;;;;5115612;27;20349;-73
2023/01/07 12:09:21;;;;;;;;;;;11.70;99.90;;;;;;5113945;27;19927;-73
2023/01/07 12:11:48;;;;;;;;;;;11.70;99.90;;;;;;5110182;27;19923;-73
2023/01/07 12:14:22;;;;;;;;;;;11.80;99.90;;;;;;5118994;27;19930;-73
2023/01/07 12:16:50;;;;;;;;;;;11.80;99.90;;;;;;5110214;27;19936;-72
2023/01/07 12:19:21;;;;;;;;;;;11.90;99.90;;;;;;5115917;27;20429;-73
2023/01/07 12:21:57;;;;;;;;;;;12.00;99.90;;;;;;5119197;27;19927;-73
2023/01/07 12:24:48;;;;;;;;;;;12.10;99.90;;;;;;5121369;27;20398;-73
2023/01/07 12:27:26;;;;;;;;;;;12.10;99.90;;;;;;5088197;27;19923;-73
2023/01/07 12:30:00;;;;;;;;;;;12.10;99.90;;;;;;5112394;27;19931;-73
2023/01/07 12:32:33;;;;;;;;;;;12.00;99.90;;;;;;5113412;27;20294;-72
2023/01/07 12:35:02;;;;;;;;;;;12.00;99.90;;;;;;5105922;27;19934;-73
2023/01/07 12:37:32;;;;;;;;;;;11.90;99.90;;;;;;5118767;27;19928;-74
2023/01/07 12:40:06;;;;;;;;;;;12.00;99.90;;;;;;5117917;27;20448;-72
2023/01/07 12:42:36;;;;;;;;;;;12.00;99.90;;;;;;5103544;27;19980;-73
2023/01/07 12:45:04;;;;;;;;;;;12.10;99.90;;;;;;5111373;27;19954;-73
2023/01/07 12:47:33;;;;;;;;;;;12.20;99.90;;;;;;5111748;27;20034;-72
2023/01/07 12:50:03;;;;;;;;;;;12.40;99.90;;;;;;5102686;27;19924;-73
2023/01/07 12:52:40;;;;;;;;;;;12.40;99.90;;;;;;5095930;27;19939;-73
2023/01/07 12:55:12;;;;;;;;;;;12.50;99.90;;;;;;5101196;27;19932;-72
2023/01/07 12:57:42;;;;;;;;;;;12.40;99.90;;;;;;5098255;27;20297;-71
2023/01/07 13:00:14;;;;;;;;;;;12.30;99.90;;;;;;5100615;27;19928;-71
2023/01/07 13:02:47;;;;;;;;;;;12.30;99.90;;;;;;5108060;27;19962;-72
2023/01/07 13:05:16;;;;;;;;;;;12.20;99.90;;;;;;5103574;27;19932;-73
2023/01/07 13:07:47;;;;;;;;;;;12.20;99.90;;;;;;5103749;27;20383;-72
2023/01/07 13:10:18;;;;;;;;;;;12.20;99.90;;;;;;5106362;27;19928;-72
2023/01/07 13:12:48;;;;;;;;;;;12.20;99.90;;;;;;5103587;27;20302;-72
2023/01/07 13:15:19;;;;;;;;;;;12.20;99.90;;;;;;5101967;27;19936;-73
2023/01/07 13:17:46;;;;;;;;;;;12.10;99.90;;;;;;5109981;27;20491;-72
2023/01/07 13:20:14;;;;;;;;;;;12.00;99.90;;;;;;5105695;27;20304;-72
2023/01/07 13:22:45;;;;;;;;;;;12.00;99.90;;;;;;5099229;27;19927;-72
2023/01/07 13:25:16;;;;;;;;;;;11.90;99.90;;;;;;5098071;27;19927;-72
2023/01/07 13:27:59;;;;;;;;;;;12.00;99.90;;;;;;5101362;27;19923;-71
2023/01/07 13:30:30;;;;;;;;;;;12.10;99.90;;;;;;5108932;27;19924;-71
2023/01/07 13:33:04;;;;;;;;;;;12.10;99.90;;;;;;5095987;28;19928;-70
2023/01/07 13:35:37;;;;;;;;;;;12.10;99.90;;;;;;5095960;27;20018;-70
2023/01/07 13:38:10;;;;;;;;;;;12.10;99.90;;;;;;5102231;27;20322;-70
2023/01/07 13:40:44;;;;;;;;;;;12.10;99.90;;;;;;5100713;27;20457;-71
2023/01/07 13:43:20;;;;;;;;;;;12.00;99.90;;;;;;5102566;27;20022;-71
2023/01/07 13:45:49;;;;;;;;;;;11.90;99.90;;;;;;5116502;27;19935;-70
2023/01/07 13:48:18;;;;;;;;;;;11.90;99.90;;;;;;5106661;27;19931;-72
2023/01/07 13:50:54;;;;;;;;;;;11.90;99.90;;;;;;5107108;27;20366;-71
2023/01/07 13:53:32;;;;;;;;;;;11.90;99.90;;;;;;5100302;27;19932;-70
2023/01/07 13:56:14;;;;;;;;;;;11.80;99.90;;;;;;5094075;27;19924;-71
2023/01/07 13:58:46;;;;;;;;;;;11.80;99.90;;;;;;5097562;27;19923;-69
2023/01/07 14:01:14;;;;;;;;;;;11.80;99.90;;;;;;5106419;27;20007;-72
2023/01/07 14:03:42;;;;;;;;;;;11.80;99.90;;;;;;5113943;27;20317;-72
2023/01/07 14:06:32;;;;;;;;;;;11.80;99.90;;;;;;5111135;27;19947;-72
2023/01/07 14:09:09;;;;;;;;;;;11.80;99.90;;;;;;5102875;27;20291;-71
2023/01/07 14:11:44;;;;;;;;;;;11.70;99.90;;;;;;5100893;27;19930;-72
2023/01/07 14:14:17;;;;;;;;;;;11.70;99.90;;;;;;5098032;27;19928;-72
2023/01/07 14:16:48;;;;;;;;;;;11.70;99.90;;;;;;5106470;27;19974;-71
2023/01/07 14:19:16;;;;;;;;;;;11.70;99.90;;;;;;5104840;27;19923;-72
2023/01/07 14:21:54;;;;;;;;;;;11.60;99.90;;;;;;5118072;27;20301;-70
2023/01/07 14:24:42;;;;;;;;;;;11.50;99.90;;;;;;5104845;27;19966;-72
2023/01/07 14:27:15;;;;;;;;;;;11.40;99.90;;;;;;5095787;27;20379;-72
2023/01/07 14:29:45;;;;;;;;;;;11.30;99.90;;;;;;5107049;27;19931;-71
2023/01/07 14:32:24;;;;;;;;;;;11.30;99.90;;;;;;5114129;28;19939;-71
2023/01/07 14:34:55;;;;;;;;;;;11.20;99.90;;;;;;5118896;28;20031;-71
2023/01/07 14:37:29;;;;;;;;;;;11.20;99.90;;;;;;5108271;28;20011;-71